In Rescue
 
Open Full Screen Window  High Contrast Mode
Wind Gusting 00 knots
08
May 25, 2022 8:35 PM CDT
Weather Information
Wind Direction
  040 °
Wind Speed
  08 kt (9 mph)
Wind Gust
  00 kt (0 mph)
Altimeter
29.91 in
Visibility
10 SM
Temperature
10° C
50° F
Dewpoint
07° C
45° F
Humidity
82%
1hr Rain Fall
00.00 in.
24hr Rain Fall
00.00 in.
Sky Condition
Overcast @ 2,800 ft
Scattered @ 1,800 ft
MVFR

METAR KD39 260135Z AUTO 04008KT 10SM SCT018 OVC028 10/07 A2991 RMK AO2 T01000068

FAA Disclaimer: The data displayed is for advisory purposes only and is not to be used for flight planning or operations.